Archival Weather

Chicago O'Hare International

Chicago, Illinois (KORD)

Report from: Wednesday, March 27, 2024 12:51 PM CDT
Current time: Tuesday, May 21, 2024 10:48 AM CDT

Current weather – Weather history – Daily summaries
Weather forecast

Temperature2.8°C (37.0°F)
Wind chill-2.4°C (27.7°F)
Dew point-5.0°C (23.0°F)
Winds 14 kts (7.2 m/s, 16.1 mph) Southwest (230°)
Wind gusts 20 kts (10.3 m/s, 23 mph)
Visibility10 mi. (16.1 km)
Clouds Scattered clouds 3,400 ft. (1,036 m)
Altimeter30.06 in.Hg (1018 mB)
Relative humidity56 %
Density altitude-1,589 ft. (-484 m)
Sea-level pressure101.8 kPa (1018 mB, 30.07 in.Hg)
Max temp last 6 hours2.8°C (37.0°F)
Min temp last 6 hours-1.7°C (28.9°F)
Remarks Automated weather observing station with precipitation discriminator
Pressure rising more slowly
Flight conditions Visual Meteorological Conditions
Raw dataKORD 271751Z 23014G20KT 10SM SCT034 03/M05 A3006 RMK AO2 SLP184 T00281050 10028 21017 51011
An error has occurred. This application may no longer respond until reloaded. Reload 🗙